Time;durP1;ratioP1;P1;durP2;ratioP2;P2;SDS_P1;SDS_P2;PMS_P1;PMS_P2;Temp;Humidity;BMP_temperature;BMP_pressure;BME280_temperature;BME280_humidity;BME280_pressure;Samples;Min_cycle;Max_cycle;Signal;HPM_P1;HPM_P2
2023/09/26 00:02:09;;;;;;;0.20;0.20;;;16.50;99.90;;;;;;5087635;28;20406;-77
2023/09/26 00:04:35;;;;;;;0.15;0.15;;;16.50;99.90;;;;;;5085397;28;20047;-77
2023/09/26 00:07:02;;;;;;;0.20;0.20;;;16.50;99.90;;;;;;5087155;28;20041;-77
2023/09/26 00:09:29;;;;;;;0.10;0.10;;;16.50;99.90;;;;;;5091529;28;20059;-77
2023/09/26 00:11:55;;;;;;;0.13;0.13;;;16.40;99.90;;;;;;5087751;28;20055;-77
2023/09/26 00:14:21;;;;;;;0.10;0.10;;;16.40;99.90;;;;;;5090112;28;20056;-77
2023/09/26 00:16:47;;;;;;;0.20;0.20;;;16.40;99.90;;;;;;5091115;28;20101;-77
2023/09/26 00:19:13;;;;;;;0.20;0.20;;;16.40;99.90;;;;;;5090901;28;20118;-77
2023/09/26 00:21:41;;;;;;;0.10;0.10;;;16.40;99.90;;;;;;5083290;28;20483;-77
2023/09/26 00:24:06;;;;;;;0.20;0.20;;;16.30;99.90;;;;;;5091198;28;20043;-77
2023/09/26 00:26:32;;;;;;;0.20;0.20;;;16.30;99.90;;;;;;5090241;28;20550;-77
2023/09/26 00:28:58;;;;;;;0.20;0.20;;;16.30;99.90;;;;;;5091198;28;20039;-77
2023/09/26 00:31:23;;;;;;;0.20;0.20;;;16.30;99.90;;;;;;5079169;28;20044;-77
2023/09/26 00:33:49;;;;;;;0.20;0.20;;;16.30;99.90;;;;;;5088494;28;20039;-77
2023/09/26 00:36:15;;;;;;;0.20;0.20;;;16.30;99.90;;;;;;5091383;28;20032;-78
2023/09/26 00:38:41;;;;;;;0.20;0.20;;;16.30;99.90;;;;;;5089494;28;20044;-77
2023/09/26 00:41:07;;;;;;;0.17;0.17;;;16.30;99.90;;;;;;5091376;28;20101;-77
2023/09/26 00:43:35;;;;;;;0.10;0.10;;;16.30;99.90;;;;;;5090904;28;20051;-77
2023/09/26 00:46:03;;;;;;;0.10;0.10;;;16.20;99.90;;;;;;5083300;28;20117;-77
2023/09/26 00:48:29;;;;;;;0.10;0.10;;;16.20;99.90;;;;;;5087498;28;20040;-77
2023/09/26 00:50:56;;;;;;;0.20;0.20;;;16.20;99.90;;;;;;5088782;28;20495;-77
2023/09/26 00:53:23;;;;;;;0.20;0.20;;;16.20;99.90;;;;;;5090235;28;20395;-77
2023/09/26 00:55:51;;;;;;;0.10;0.10;;;16.20;99.90;;;;;;5086342;28;20036;-77
2023/09/26 00:58:18;;;;;;;0.17;0.17;;;16.20;99.90;;;;;;5087217;28;20040;-77
2023/09/26 01:00:50;;;;;;;0.20;0.20;;;16.10;99.90;;;;;;5088771;28;20113;-77
2023/09/26 01:03:16;;;;;;;0.10;0.10;;;16.10;99.90;;;;;;5089474;28;20134;-77
2023/09/26 01:05:42;;;;;;;0.10;0.10;;;16.10;99.90;;;;;;5089218;28;20173;-77
2023/09/26 01:08:08;;;;;;;0.15;0.15;;;16.10;99.90;;;;;;5090032;28;20055;-77
2023/09/26 01:10:36;;;;;;;0.10;0.10;;;16.10;99.90;;;;;;5092334;28;20043;-77
2023/09/26 01:13:02;;;;;;;0.10;0.10;;;16.10;99.90;;;;;;5091115;28;20055;-77
2023/09/26 01:15:36;;;;;;;0.20;0.20;;;16.10;99.90;;;;;;5087190;28;20060;-77
2023/09/26 01:18:12;;;;;;;0.10;0.10;;;16.00;99.90;;;;;;5087644;28;20048;-77
2023/09/26 01:20:44;;;;;;;0.13;0.13;;;16.00;99.90;;;;;;5083312;28;20117;-78
2023/09/26 01:23:11;;;;;;;;;;;16.00;99.90;;;;;;5088869;28;20075;-77
2023/09/26 01:25:37;;;;;;;0.10;0.10;;;16.00;99.90;;;;;;5089182;28;20286;-77
2023/09/26 01:28:07;;;;;;;0.10;0.10;;;16.00;99.90;;;;;;5087763;28;20054;-77
2023/09/26 01:30:37;;;;;;;0.10;0.10;;;16.00;99.90;;;;;;5081563;28;20048;-77
2023/09/26 01:33:19;;;;;;;0.10;0.10;;;16.00;99.90;;;;;;5099265;28;20067;-77
2023/09/26 01:35:44;;;;;;;0.10;0.10;;;15.90;99.90;;;;;;5080839;28;20048;-77
2023/09/26 01:38:10;;;;;;;0.17;0.17;;;15.90;99.90;;;;;;5090347;28;20036;-77
2023/09/26 01:40:36;;;;;;;0.20;0.20;;;15.90;99.90;;;;;;5089541;28;20079;-77
2023/09/26 01:43:02;;;;;;;0.20;0.20;;;15.80;99.90;;;;;;5089836;28;20028;-77
2023/09/26 01:45:27;;;;;;;0.10;0.10;;;15.80;99.90;;;;;;5083722;28;20149;-77
2023/09/26 01:47:53;;;;;;;0.10;0.10;;;15.80;99.90;;;;;;5090675;28;20035;-77
2023/09/26 01:50:20;;;;;;;0.20;0.20;;;15.80;99.90;;;;;;5088613;28;20123;-77
2023/09/26 01:52:46;;;;;;;0.13;0.13;;;15.80;99.90;;;;;;5090123;28;20044;-77
2023/09/26 01:55:17;;;;;;;0.10;0.10;;;15.70;99.90;;;;;;5088527;28;20040;-77
2023/09/26 01:57:43;;;;;;;0.10;0.10;;;15.70;99.90;;;;;;5089616;28;20380;-77
2023/09/26 02:00:12;;;;;;;0.20;0.20;;;15.70;99.90;;;;;;5089095;28;20039;-77
2023/09/26 02:02:39;;;;;;;0.20;0.20;;;15.70;99.90;;;;;;5083716;28;20059;-77
2023/09/26 02:05:07;;;;;;;0.10;0.10;;;15.60;99.90;;;;;;5086522;28;20097;-77
2023/09/26 02:07:32;;;;;;;0.20;0.20;;;15.60;99.90;;;;;;5089136;28;20044;-77
2023/09/26 02:09:58;;;;;;;0.10;0.10;;;15.60;99.90;;;;;;5090384;28;20036;-77
2023/09/26 02:12:23;;;;;;;0.10;0.10;;;15.60;99.90;;;;;;5089312;28;20040;-77
2023/09/26 02:14:50;;;;;;;0.10;0.10;;;15.60;99.90;;;;;;5088691;28;20060;-77
2023/09/26 02:17:15;;;;;;;0.10;0.10;;;15.60;99.90;;;;;;5086983;28;20036;-77
2023/09/26 02:19:41;;;;;;;0.20;0.20;;;15.60;99.90;;;;;;5089041;28;20052;-77
2023/09/26 02:22:07;;;;;;;0.10;0.10;;;15.60;99.90;;;;;;5090117;28;20032;-77
2023/09/26 02:24:33;;;;;;;0.10;0.10;;;15.50;99.90;;;;;;5088808;28;20186;-77
2023/09/26 02:26:58;;;;;;;0.20;0.20;;;15.50;99.90;;;;;;5085697;28;20097;-77
2023/09/26 02:29:24;;;;;;;0.10;0.10;;;15.50;99.90;;;;;;5085310;28;20674;-77
2023/09/26 02:31:50;;;;;;;0.20;0.20;;;15.50;99.90;;;;;;5087177;28;20062;-77
2023/09/26 02:34:15;;;;;;;0.10;0.10;;;15.50;99.90;;;;;;5078765;28;20100;-77
2023/09/26 02:36:41;;;;;;;0.10;0.10;;;15.50;99.90;;;;;;5088185;28;20051;-77
2023/09/26 02:39:06;;;;;;;0.17;0.17;;;15.40;99.90;;;;;;5088090;28;20436;-77
2023/09/26 02:41:32;;;;;;;0.10;0.10;;;15.40;99.90;;;;;;5087321;28;20044;-77
2023/09/26 02:43:59;;;;;;;0.10;0.10;;;15.40;99.90;;;;;;5087176;28;20036;-77
2023/09/26 02:46:24;;;;;;;0.10;0.10;;;15.30;99.90;;;;;;5087421;28;20044;-77
2023/09/26 02:48:50;;;;;;;0.13;0.13;;;15.30;99.90;;;;;;5093785;28;20048;-75
2023/09/26 02:51:15;;;;;;;0.20;0.20;;;15.30;99.90;;;;;;5088556;28;20046;-74
2023/09/26 02:53:41;;;;;;;0.10;0.10;;;15.30;99.90;;;;;;5088391;28;20040;-74
2023/09/26 02:56:10;;;;;;;0.10;0.10;;;15.20;99.90;;;;;;5088416;28;20032;-74
2023/09/26 02:58:36;;;;;;;0.10;0.10;;;15.20;99.90;;;;;;5086753;28;20044;-74
2023/09/26 03:01:04;;;;;;;0.20;0.20;;;15.10;99.90;;;;;;5088783;28;20143;-77
2023/09/26 03:03:30;;;;;;;0.20;0.20;;;15.10;99.90;;;;;;5086290;28;20502;-77
2023/09/26 03:05:56;;;;;;;0.10;0.10;;;15.10;99.90;;;;;;5086852;28;20072;-77
2023/09/26 03:08:22;;;;;;;0.10;0.10;;;15.10;99.90;;;;;;5088085;28;20082;-77
2023/09/26 03:10:48;;;;;;;0.10;0.10;;;15.10;99.90;;;;;;5088932;28;20046;-77
2023/09/26 03:13:13;;;;;;;0.10;0.10;;;15.00;99.90;;;;;;5086676;28;20127;-77
2023/09/26 03:15:39;;;;;;;0.10;0.10;;;15.00;99.90;;;;;;5095553;28;20048;-77
2023/09/26 03:18:05;;;;;;;0.10;0.10;;;15.00;99.90;;;;;;5087202;28;20048;-77
2023/09/26 03:20:31;;;;;;;0.10;0.10;;;14.90;99.90;;;;;;5086945;28;20044;-77
2023/09/26 03:22:57;;;;;;;0.17;0.17;;;14.90;99.90;;;;;;5088778;28;20052;-77
2023/09/26 03:25:23;;;;;;;0.10;0.10;;;14.90;99.90;;;;;;5087355;28;20032;-77
2023/09/26 03:27:51;;;;;;;0.10;0.10;;;14.90;99.90;;;;;;5080727;28;20055;-77
2023/09/26 03:30:17;;;;;;;0.10;0.10;;;14.80;99.90;;;;;;5086531;28;20040;-77
2023/09/26 03:32:43;;;;;;;0.20;0.20;;;14.80;99.90;;;;;;5088523;28;20055;-77
2023/09/26 03:35:09;;;;;;;0.13;0.13;;;14.80;99.90;;;;;;5079395;28;20032;-77
2023/09/26 03:37:39;;;;;;;0.10;0.10;;;14.80;99.90;;;;;;5084669;28;20047;-77
2023/09/26 03:40:05;;;;;;;0.20;0.20;;;14.70;99.90;;;;;;5086198;28;20064;-77
2023/09/26 03:42:31;;;;;;;0.10;0.10;;;14.70;99.90;;;;;;5084032;28;20399;-76
2023/09/26 03:44:56;;;;;;;0.17;0.17;;;14.70;99.90;;;;;;5085702;28;20040;-75
2023/09/26 03:47:22;;;;;;;0.10;0.10;;;14.70;99.90;;;;;;5082732;28;20136;-76
2023/09/26 03:49:54;;;;;;;0.10;0.10;;;14.60;99.90;;;;;;5086256;28;20044;-76
2023/09/26 03:52:19;;;;;;;0.10;0.10;;;14.60;99.90;;;;;;5087020;28;20392;-76
2023/09/26 03:54:45;;;;;;;0.10;0.10;;;14.60;99.90;;;;;;5087143;28;20044;-76
2023/09/26 03:57:11;;;;;;;0.10;0.10;;;14.60;99.90;;;;;;5089018;28;20047;-76
2023/09/26 03:59:36;;;;;;;0.17;0.17;;;14.60;99.90;;;;;;5087305;28;20044;-77
2023/09/26 04:02:02;;;;;;;0.10;0.10;;;14.50;99.90;;;;;;5087067;28;20051;-76
2023/09/26 04:04:29;;;;;;;0.20;0.20;;;14.50;99.90;;;;;;5086127;28;20036;-76
2023/09/26 04:06:54;;;;;;;0.20;0.20;;;14.50;99.90;;;;;;5087780;28;20055;-76
2023/09/26 04:09:20;;;;;;;0.10;0.10;;;14.40;99.90;;;;;;5086916;28;20043;-76
2023/09/26 04:11:48;;;;;;;0.10;0.10;;;14.40;99.90;;;;;;5085935;28;20044;-76
2023/09/26 04:14:13;;;;;;;0.10;0.10;;;14.40;99.90;;;;;;5088108;28;20052;-76
2023/09/26 04:16:39;;;;;;;0.20;0.20;;;14.40;99.90;;;;;;5086023;28;20138;-75
2023/09/26 04:19:05;;;;;;;0.10;0.10;;;14.40;99.90;;;;;;5087844;28;20040;-76
2023/09/26 04:21:31;;;;;;;0.10;0.10;;;14.40;99.90;;;;;;5087537;28;20037;-76
2023/09/26 04:23:59;;;;;;;0.10;0.10;;;14.30;99.90;;;;;;5087511;28;20042;-76
2023/09/26 04:26:25;;;;;;;0.10;0.10;;;14.30;99.90;;;;;;5085922;28;20040;-76
2023/09/26 04:28:50;;;;;;;0.10;0.10;;;14.30;99.90;;;;;;5081131;28;20201;-76
2023/09/26 04:31:18;;;;;;;0.10;0.10;;;14.20;99.90;;;;;;5088626;28;20299;-77
2023/09/26 04:33:48;;;;;;;0.10;0.10;;;14.20;99.90;;;;;;5086483;28;20096;-76
2023/09/26 04:36:14;;;;;;;0.15;0.15;;;14.10;99.90;;;;;;5083488;28;20408;-76
2023/09/26 04:38:40;;;;;;;0.20;0.20;;;14.10;99.90;;;;;;5086004;28;20059;-76
2023/09/26 04:41:06;;;;;;;0.20;0.20;;;14.10;99.90;;;;;;5087547;28;20120;-76
2023/09/26 04:43:32;;;;;;;0.20;0.20;;;14.10;99.90;;;;;;5087146;28;20056;-76
2023/09/26 04:45:57;;;;;;;0.10;0.10;;;14.10;99.90;;;;;;5086110;28;20040;-76
2023/09/26 04:48:23;;;;;;;0.20;0.20;;;14.10;99.90;;;;;;5086858;28;20670;-76
2023/09/26 04:50:49;;;;;;;0.10;0.10;;;14.10;99.90;;;;;;5086949;28;20119;-76
2023/09/26 04:53:15;;;;;;;0.20;0.20;;;14.10;99.90;;;;;;5087461;28;20048;-76
2023/09/26 04:55:41;;;;;;;0.10;0.10;;;14.10;99.90;;;;;;5088858;28;20085;-76
2023/09/26 04:58:08;;;;;;;0.20;0.20;;;14.10;99.90;;;;;;5090259;28;20044;-76
2023/09/26 05:00:34;;;;;;;0.10;0.10;;;14.10;99.90;;;;;;5087018;28;20068;-76
2023/09/26 05:03:01;;;;;;;0.10;0.10;;;14.10;99.90;;;;;;5088457;28;20399;-76
2023/09/26 05:05:27;;;;;;;0.20;0.20;;;14.20;99.90;;;;;;5080300;28;20450;-76
2023/09/26 05:07:53;;;;;;;0.15;0.15;;;14.20;99.90;;;;;;5089872;28;20094;-77
2023/09/26 05:10:19;;;;;;;0.10;0.10;;;14.20;99.90;;;;;;5086269;28;20040;-77
2023/09/26 05:12:45;;;;;;;0.10;0.10;;;14.20;99.90;;;;;;5088815;28;20613;-77
2023/09/26 05:15:13;;;;;;;0.10;0.10;;;14.20;99.90;;;;;;5088849;28;20055;-77
2023/09/26 05:17:50;;;;;;;0.10;0.10;;;14.20;99.90;;;;;;5090037;28;20125;-77
2023/09/26 05:20:16;;;;;;;0.10;0.10;;;14.20;99.90;;;;;;5088573;28;20119;-78
2023/09/26 05:22:44;;;;;;;0.10;0.10;;;14.20;99.90;;;;;;5089235;28;20036;-78
2023/09/26 05:25:10;;;;;;;0.10;0.10;;;14.20;99.90;;;;;;5081764;28;20318;-78
2023/09/26 05:27:38;;;;;;;0.20;0.20;;;14.20;99.90;;;;;;5087018;28;20112;-78
2023/09/26 05:30:07;;;;;;;0.13;0.13;;;14.20;99.90;;;;;;5088524;28;20127;-78
2023/09/26 05:32:33;;;;;;;0.20;0.20;;;14.20;99.90;;;;;;5089306;28;20039;-78
2023/09/26 05:34:58;;;;;;;0.10;0.10;;;14.20;99.90;;;;;;5079253;28;20092;-78
2023/09/26 05:37:25;;;;;;;0.17;0.17;;;14.20;99.90;;;;;;5083140;28;20043;-78
2023/09/26 05:39:51;;;;;;;0.17;0.17;;;14.20;99.90;;;;;;5088697;28;20036;-78
2023/09/26 05:42:16;;;;;;;0.10;0.10;;;14.20;99.90;;;;;;5086873;28;20048;-77
2023/09/26 05:44:42;;;;;;;0.10;0.10;;;14.20;99.90;;;;;;5090724;28;20182;-78
2023/09/26 05:47:08;;;;;;;0.10;0.10;;;14.20;99.90;;;;;;5089000;28;20032;-78
2023/09/26 05:49:33;;;;;;;0.10;0.10;;;14.20;99.90;;;;;;5087842;28;20805;-78
2023/09/26 05:51:59;;;;;;;0.20;0.20;;;14.20;99.90;;;;;;5087982;28;20040;-78
2023/09/26 05:54:25;;;;;;;0.20;0.20;;;14.20;99.90;;;;;;5089643;28;20046;-78
2023/09/26 05:56:50;;;;;;;0.17;0.17;;;14.20;99.90;;;;;;5085344;28;20045;-79
2023/09/26 05:59:16;;;;;;;0.20;0.20;;;14.20;99.90;;;;;;5086942;28;20063;-78
2023/09/26 06:01:42;;;;;;;0.20;0.20;;;14.20;99.90;;;;;;5087908;28;20801;-79
2023/09/26 06:04:08;;;;;;;0.20;0.20;;;14.10;99.90;;;;;;5084616;28;20595;-78
2023/09/26 06:06:34;;;;;;;0.20;0.20;;;14.20;99.90;;;;;;5087577;28;20454;-79
2023/09/26 06:08:59;;;;;;;0.10;0.10;;;14.20;99.90;;;;;;5086255;28;20044;-79
2023/09/26 06:11:25;;;;;;;0.17;0.17;;;14.20;99.90;;;;;;5085884;28;20046;-78
2023/09/26 06:13:52;;;;;;;0.20;0.20;;;14.10;99.90;;;;;;5089740;28;20074;-77
2023/09/26 06:16:19;;;;;;;0.10;0.10;;;14.10;99.90;;;;;;5088708;28;20442;-78
2023/09/26 06:18:47;;;;;;;0.10;0.10;;;14.10;99.90;;;;;;5087528;28;20040;-78
2023/09/26 06:21:14;;;;;;;0.13;0.13;;;14.20;99.90;;;;;;5087933;28;20586;-78
2023/09/26 06:23:42;;;;;;;0.10;0.10;;;14.20;99.90;;;;;;5090344;28;20036;-78
2023/09/26 06:26:08;;;;;;;0.10;0.10;;;14.20;99.90;;;;;;5089684;28;20054;-78
2023/09/26 06:28:34;;;;;;;0.10;0.10;;;14.20;99.90;;;;;;5086045;28;20044;-78
2023/09/26 06:31:07;;;;;;;0.10;0.10;;;14.20;99.90;;;;;;5088674;28;20051;-78
2023/09/26 06:33:33;;;;;;;0.10;0.10;;;14.20;99.90;;;;;;5102848;28;20085;-78
2023/09/26 06:35:59;;;;;;;0.10;0.10;;;14.20;99.90;;;;;;5087116;28;20044;-78
2023/09/26 06:38:25;;;;;;;0.20;0.20;;;14.30;99.90;;;;;;5087995;28;20042;-78
2023/09/26 06:41:01;;;;;;;0.10;0.10;;;14.30;99.90;;;;;;5091040;28;20115;-79
2023/09/26 06:43:27;;;;;;;0.10;0.10;;;14.30;99.90;;;;;;5088037;28;20109;-79
2023/09/26 06:45:53;;;;;;;0.10;0.10;;;14.30;99.90;;;;;;5088796;28;20052;-79
2023/09/26 06:48:19;;;;;;;0.10;0.10;;;14.30;99.90;;;;;;5086747;28;20054;-79
2023/09/26 06:50:44;;;;;;;0.10;0.10;;;14.20;99.90;;;;;;5086814;28;20032;-78
2023/09/26 06:53:10;;;;;;;0.10;0.10;;;14.20;99.90;;;;;;5090937;28;20039;-79
2023/09/26 06:55:39;;;;;;;0.10;0.10;;;14.30;99.90;;;;;;5090055;28;20568;-79
2023/09/26 06:58:08;;;;;;;0.10;0.10;;;14.30;99.90;;;;;;5088088;28;20048;-79
2023/09/26 07:00:35;;;;;;;0.10;0.10;;;14.20;99.90;;;;;;5088858;28;20104;-78
2023/09/26 07:03:02;;;;;;;0.10;0.10;;;14.30;99.90;;;;;;5087963;28;20036;-79
2023/09/26 07:05:28;;;;;;;0.10;0.10;;;14.30;99.90;;;;;;5087546;28;20134;-79
2023/09/26 07:07:54;;;;;;;0.20;0.20;;;14.40;99.90;;;;;;5088897;28;20130;-79
2023/09/26 07:10:24;;;;;;;0.10;0.10;;;14.30;99.90;;;;;;5087990;28;20098;-78
2023/09/26 07:12:51;;;;;;;0.10;0.10;;;14.30;99.90;;;;;;5104476;28;20036;-79
2023/09/26 07:15:18;;;;;;;0.10;0.10;;;14.40;99.90;;;;;;5088708;28;20372;-79
2023/09/26 07:17:44;;;;;;;0.10;0.10;;;14.40;99.90;;;;;;5085406;28;20040;-80
2023/09/26 07:20:13;;;;;;;0.10;0.10;;;14.50;99.90;;;;;;5085309;28;20066;-79
2023/09/26 07:22:44;;;;;;;0.10;0.10;;;14.50;99.90;;;;;;5084473;28;20112;-78
2023/09/26 07:25:11;;;;;;;0.20;0.20;;;14.60;99.90;;;;;;5102449;28;20130;-78
2023/09/26 07:27:36;;;;;;;0.10;0.10;;;14.60;99.90;;;;;;5096679;28;20753;-78
2023/09/26 07:30:03;;;;;;;0.20;0.20;;;14.70;99.90;;;;;;5083368;28;20063;-76
2023/09/26 07:32:30;;;;;;;0.20;0.20;;;14.70;99.90;;;;;;5093536;28;20058;-77
2023/09/26 07:34:56;;;;;;;0.13;0.13;;;14.80;99.90;;;;;;5084287;28;20036;-76
2023/09/26 07:37:22;;;;;;;0.20;0.20;;;14.90;99.90;;;;;;5085327;28;20044;-78
2023/09/26 07:39:51;;;;;;;0.10;0.10;;;14.90;99.90;;;;;;5083089;28;20835;-78
2023/09/26 07:42:18;;;;;;;0.10;0.10;;;15.00;99.90;;;;;;5087905;28;20070;-78
2023/09/26 07:44:43;;;;;;;0.20;0.20;;;14.90;99.90;;;;;;5088337;28;20071;-78
2023/09/26 07:47:09;;;;;;;0.10;0.10;;;15.00;99.90;;;;;;5094642;28;20101;-78
2023/09/26 07:49:35;;;;;;;0.20;0.20;;;15.00;99.90;;;;;;5089938;28;20499;-78
2023/09/26 07:52:00;;;;;;;0.10;0.10;;;15.10;99.90;;;;;;5088611;28;20070;-78
2023/09/26 07:54:26;;;;;;;0.10;0.10;;;15.10;99.90;;;;;;5087646;28;20067;-78
2023/09/26 07:56:52;;;;;;;0.10;0.10;;;15.10;99.90;;;;;;5088002;28;20071;-78
2023/09/26 07:59:18;;;;;;;0.10;0.10;;;15.20;99.90;;;;;;5093660;28;20070;-78
2023/09/26 08:01:43;;;;;;;0.20;0.20;;;15.20;99.90;;;;;;5080184;28;20051;-78
2023/09/26 08:04:09;;;;;;;0.10;0.10;;;15.30;99.90;;;;;;5080905;28;20047;-77
2023/09/26 08:06:35;;;;;;;0.20;0.20;;;15.30;99.90;;;;;;5088846;28;20048;-78
2023/09/26 08:09:00;;;;;;;0.20;0.20;;;15.40;99.90;;;;;;5088766;28;20090;-78
2023/09/26 08:11:28;;;;;;;0.10;0.10;;;15.50;99.90;;;;;;5091145;28;20040;-78
2023/09/26 08:13:54;;;;;;;0.10;0.10;;;15.50;99.90;;;;;;5088587;28;20052;-77
2023/09/26 08:16:21;;;;;;;0.10;0.10;;;15.60;99.90;;;;;;5089979;28;20834;-78
2023/09/26 08:18:49;;;;;;;0.20;0.20;;;15.70;99.90;;;;;;5095742;28;20040;-78
2023/09/26 08:21:15;;;;;;;0.20;0.20;;;15.70;99.90;;;;;;5106514;28;20035;-78
2023/09/26 08:23:40;;;;;;;0.10;0.10;;;15.80;99.90;;;;;;5087538;28;20047;-78
2023/09/26 08:26:10;;;;;;;0.10;0.10;;;15.90;99.90;;;;;;5089775;28;20597;-79
2023/09/26 08:28:36;;;;;;;0.20;0.20;;;15.90;99.90;;;;;;5089218;28;20047;-79
2023/09/26 08:31:08;;;;;;;0.20;0.20;;;16.00;99.90;;;;;;5093543;28;20070;-78
2023/09/26 08:33:34;;;;;;;0.10;0.10;;;16.10;99.90;;;;;;5091809;28;20044;-79
2023/09/26 08:36:00;;;;;;;0.20;0.20;;;16.20;99.90;;;;;;5094195;28;20049;-78
2023/09/26 08:38:26;;;;;;;0.10;0.10;;;16.20;99.90;;;;;;5089990;28;20051;-78
2023/09/26 08:40:52;;;;;;;0.20;0.20;;;16.20;99.90;;;;;;5092134;28;20044;-78
2023/09/26 08:43:27;;;;;;;0.13;0.13;;;16.30;99.90;;;;;;5093268;28;20071;-79
2023/09/26 08:45:53;;;;;;;0.10;0.10;;;16.30;99.90;;;;;;5093719;28;20399;-78
2023/09/26 08:48:19;;;;;;;0.10;0.10;;;16.30;99.90;;;;;;5092507;28;20138;-78
2023/09/26 08:50:46;;;;;;;0.10;0.10;;;16.40;99.90;;;;;;5088814;28;20049;-78
2023/09/26 08:53:11;;;;;;;0.10;0.10;;;16.40;99.90;;;;;;5091311;28;20535;-79
2023/09/26 08:55:39;;;;;;;0.10;0.10;;;16.40;99.90;;;;;;5094588;28;20047;-78
2023/09/26 08:58:05;;;;;;;0.10;0.10;;;16.50;99.90;;;;;;5091466;28;20060;-79
2023/09/26 09:00:31;;;;;;;0.20;0.20;;;16.50;99.90;;;;;;5093234;28;20415;-79
2023/09/26 09:02:57;;;;;;;0.10;0.10;;;16.60;99.90;;;;;;5096213;28;20059;-79
2023/09/26 09:05:23;;;;;;;0.10;0.10;;;16.60;99.90;;;;;;5089640;28;20059;-78
2023/09/26 09:07:49;;;;;;;0.20;0.20;;;16.60;99.90;;;;;;5091657;28;20592;-79
2023/09/26 09:10:16;;;;;;;0.10;0.10;;;16.70;99.90;;;;;;5096088;28;20184;-78
2023/09/26 09:12:47;;;;;;;0.10;0.10;;;16.70;99.90;;;;;;5093684;28;20179;-78
2023/09/26 09:15:16;;;;;;;0.20;0.20;;;16.80;99.90;;;;;;5111252;27;20048;-78
2023/09/26 09:17:45;;;;;;;0.10;0.10;;;16.90;99.90;;;;;;5089352;28;20043;-77
2023/09/26 09:20:16;;;;;;;0.20;0.20;;;17.00;99.90;;;;;;5092272;28;20167;-77
2023/09/26 09:22:46;;;;;;;0.20;0.20;;;17.10;99.90;;;;;;5092605;28;20087;-77
2023/09/26 09:25:12;;;;;;;0.20;0.20;;;17.20;99.90;;;;;;5092454;28;20371;-77
2023/09/26 09:27:40;;;;;;;0.10;0.10;;;17.30;99.90;;;;;;5093290;28;20039;-77
2023/09/26 09:30:12;;;;;;;0.20;0.20;;;17.40;99.90;;;;;;5093200;28;20040;-77
2023/09/26 09:32:42;;;;;;;0.10;0.10;;;17.50;99.90;;;;;;5093023;28;20083;-77
2023/09/26 09:35:09;;;;;;;0.10;0.10;;;17.50;99.90;;;;;;5088943;28;20076;-78
2023/09/26 09:37:35;;;;;;;0.10;0.10;;;17.60;99.90;;;;;;5091764;28;20578;-77
2023/09/26 09:40:01;;;;;;;0.20;0.20;;;17.60;99.90;;;;;;5088643;28;20246;-77
2023/09/26 09:42:26;;;;;;;0.15;0.15;;;17.60;99.90;;;;;;5089604;28;20044;-77
2023/09/26 09:44:52;;;;;;;0.17;0.17;;;17.60;99.90;;;;;;5092988;28;20035;-78
2023/09/26 09:47:23;;;;;;;0.10;0.10;;;17.70;99.90;;;;;;5090028;28;20553;-78
2023/09/26 09:49:51;;;;;;;0.20;0.20;;;17.80;99.90;;;;;;5094187;28;20044;-77
2023/09/26 09:52:19;;;;;;;0.20;0.20;;;17.90;99.90;;;;;;5095467;28;20080;-78
2023/09/26 09:54:45;;;;;;;0.10;0.10;;;18.00;99.90;;;;;;5091126;28;20114;-77
2023/09/26 09:57:17;;;;;;;0.20;0.20;;;18.10;99.90;;;;;;5095687;28;20035;-77
2023/09/26 09:59:45;;;;;;;0.20;0.20;;;18.20;99.90;;;;;;5093443;28;20051;-78
2023/09/26 10:02:15;;;;;;;0.10;0.10;;;18.40;99.90;;;;;;5094189;28;20047;-78
2023/09/26 10:04:47;;;;;;;0.20;0.20;;;18.50;99.90;;;;;;5088180;28;20040;-78
2023/09/26 10:07:17;;;;;;;0.10;0.10;;;18.50;99.90;;;;;;5096096;28;20075;-78
2023/09/26 10:09:44;;;;;;;0.20;0.20;;;18.60;99.90;;;;;;5091033;28;20039;-78
2023/09/26 10:12:11;;;;;;;0.20;0.20;;;18.60;99.90;;;;;;5092826;28;20046;-77
2023/09/26 10:14:37;;;;;;;0.20;0.20;;;18.70;99.90;;;;;;5091112;28;20070;-78
2023/09/26 10:17:06;;;;;;;0.20;0.20;;;18.80;99.90;;;;;;5089703;28;20048;-78
2023/09/26 10:19:33;;;;;;;0.20;0.20;;;18.90;99.90;;;;;;5075160;28;20893;-77
2023/09/26 10:22:19;;;;;;;0.20;0.20;;;18.90;99.90;;;;;;5091020;28;20075;-78
2023/09/26 10:24:46;;;;;;;0.20;0.20;;;19.00;99.90;;;;;;5090226;28;20048;-78
2023/09/26 10:27:12;;;;;;;0.20;0.20;;;19.10;99.90;;;;;;5089695;28;20058;-78
2023/09/26 10:29:38;;;;;;;0.20;0.20;;;19.10;99.90;;;;;;5088831;28;20044;-78
2023/09/26 10:32:07;;;;;;;0.10;0.10;;;19.20;99.90;;;;;;5109661;27;20036;-78
2023/09/26 10:34:35;;;;;;;0.20;0.20;;;19.30;99.90;;;;;;5087781;28;20044;-78
2023/09/26 10:37:06;;;;;;;0.20;0.20;;;19.30;99.90;;;;;;5087840;28;20039;-78
2023/09/26 10:39:36;;;;;;;0.20;0.20;;;19.40;99.90;;;;;;5093837;28;20048;-78
2023/09/26 10:42:18;;;;;;;0.20;0.20;;;19.50;99.90;;;;;;5083039;28;20055;-78
2023/09/26 10:44:45;;;;;;;0.20;0.20;;;19.60;99.90;;;;;;5088798;28;20105;-78
2023/09/26 10:47:15;;;;;;;0.20;0.20;;;19.70;99.90;;;;;;5088215;28;20044;-78
2023/09/26 10:49:41;;;;;;;0.20;0.20;;;19.70;99.90;;;;;;5095086;28;20391;-78
2023/09/26 10:52:10;;;;;;;0.20;0.20;;;19.70;99.90;;;;;;5090441;28;20294;-78
2023/09/26 10:54:37;;;;;;;0.20;0.20;;;19.70;99.90;;;;;;5089472;28;20050;-78
2023/09/26 10:57:07;;;;;;;0.20;0.20;;;19.80;99.90;;;;;;5087682;28;20118;-78
2023/09/26 10:59:33;;;;;;;0.20;0.20;;;19.90;99.90;;;;;;5087862;28;20044;-78
2023/09/26 11:02:01;;;;;;;0.20;0.20;;;19.90;99.90;;;;;;5091498;28;20542;-78
2023/09/26 11:04:31;;;;;;;0.20;0.20;;;20.00;99.90;;;;;;5095141;28;20044;-78
2023/09/26 11:07:05;;;;;;;0.20;0.20;;;20.10;99.90;;;;;;5088771;28;20043;-78
2023/09/26 11:09:33;;;;;;;0.20;0.20;;;20.10;99.90;;;;;;5080774;28;20044;-78
2023/09/26 11:11:59;;;;;;;0.20;0.20;;;20.10;99.90;;;;;;5099432;28;20068;-78
2023/09/26 11:14:28;;;;;;;0.20;0.20;;;20.20;99.90;;;;;;5086910;28;20511;-78
2023/09/26 11:16:54;;;;;;;0.20;0.20;;;20.20;99.90;;;;;;5085699;28;20036;-78
2023/09/26 11:19:23;;;;;;;0.20;0.20;;;20.20;99.90;;;;;;5087708;28;20692;-78
2023/09/26 11:21:49;;;;;;;0.20;0.20;;;20.20;99.90;;;;;;5080191;28;20048;-78
2023/09/26 11:24:31;;;;;;;0.30;0.30;;;20.20;99.90;;;;;;5088225;28;20054;-78
2023/09/26 11:27:08;;;;;;;0.20;0.20;;;20.20;99.90;;;;;;5093062;28;20507;-78
2023/09/26 11:29:35;;;;;;;0.20;0.20;;;20.20;99.90;;;;;;5085583;28;20046;-78
2023/09/26 11:32:03;;;;;;;0.20;0.20;;;20.20;99.90;;;;;;5086307;28;20044;-79
2023/09/26 11:34:29;;;;;;;0.20;0.20;;;20.20;99.90;;;;;;5087625;28;20090;-78
2023/09/26 11:36:55;;;;;;;0.13;0.13;;;20.30;99.90;;;;;;5090031;28;20160;-78
2023/09/26 11:39:23;;;;;;;0.20;0.20;;;20.30;99.90;;;;;;5086602;28;20036;-77
2023/09/26 11:42:17;;;;;;;0.20;0.20;;;20.30;99.90;;;;;;5079752;28;20086;-78
2023/09/26 11:45:03;;;;;;;0.10;0.10;;;20.30;99.90;;;;;;5085075;28;20460;-77
2023/09/26 11:47:29;;;;;;;0.20;0.20;;;20.40;99.90;;;;;;5083382;28;20052;-78
2023/09/26 11:49:55;;;;;;;0.25;0.25;;;20.40;99.90;;;;;;5086354;28;20549;-79
2023/09/26 11:52:21;;;;;;;0.20;0.20;;;20.40;99.90;;;;;;5085960;28;20127;-75
2023/09/26 11:54:47;;;;;;;0.25;0.25;;;20.40;99.90;;;;;;5087479;28;20048;-76
2023/09/26 11:57:13;;;;;;;0.20;0.20;;;20.50;99.90;;;;;;5084282;28;20125;-76
2023/09/26 11:59:40;;;;;;;0.20;0.20;;;20.50;99.90;;;;;;5082916;28;20043;-76
2023/09/26 12:02:07;;;;;;;0.20;0.20;;;20.60;99.90;;;;;;5080385;28;20042;-76
2023/09/26 12:04:33;;;;;;;0.20;0.20;;;20.60;99.90;;;;;;5086173;28;20516;-76
2023/09/26 12:06:59;;;;;;;0.20;0.20;;;20.70;99.90;;;;;;5087750;28;20044;-76
2023/09/26 12:09:28;;;;;;;0.10;0.10;;;20.80;99.90;;;;;;5091535;28;20056;-76
2023/09/26 12:11:54;;;;;;;0.10;0.10;;;20.90;99.90;;;;;;5092029;28;20086;-77
2023/09/26 12:14:20;;;;;;;0.20;0.20;;;21.00;99.90;;;;;;5097251;28;20055;-77
2023/09/26 12:16:50;;;;;;;0.20;0.20;;;21.10;99.90;;;;;;5093326;28;20480;-77
2023/09/26 12:19:20;;;;;;;0.20;0.20;;;21.10;99.90;;;;;;5091580;28;20040;-78
2023/09/26 12:21:46;;;;;;;0.20;0.20;;;21.20;99.90;;;;;;5086385;28;20048;-78
2023/09/26 12:24:13;;;;;;;0.20;0.20;;;21.40;99.90;;;;;;5090676;28;20425;-78
2023/09/26 12:26:41;;;;;;;0.20;0.20;;;21.50;99.90;;;;;;5089423;28;20451;-78
2023/09/26 12:29:07;;;;;;;0.20;0.20;;;21.60;99.90;;;;;;5088005;28;20039;-78
2023/09/26 12:31:33;;;;;;;0.20;0.20;;;21.70;99.90;;;;;;5087652;28;20052;-78
2023/09/26 12:33:58;;;;;;;0.20;0.20;;;21.80;99.90;;;;;;5088302;28;20073;-79
2023/09/26 12:36:24;;;;;;;0.20;0.20;;;21.90;99.90;;;;;;5085015;28;20483;-79
2023/09/26 12:38:50;;;;;;;0.20;0.20;;;22.10;99.90;;;;;;5088491;28;20122;-78
2023/09/26 12:41:15;;;;;;;0.20;0.20;;;22.30;99.90;;;;;;5090524;28;20119;-78
2023/09/26 12:43:41;;;;;;;0.20;0.20;;;22.50;99.90;;;;;;5080559;28;20040;-78
2023/09/26 12:46:07;;;;;;;0.20;0.20;;;22.70;99.90;;;;;;5087659;28;20443;-78
2023/09/26 12:48:32;;;;;;;0.20;0.20;;;22.80;99.90;;;;;;5087514;28;20040;-78